KELD/ELD METAR and TAF weather

Enter ICAO airport designator
Station Type Date Time Source
KELD METAR 2019/10/21 05:04 UTC NOAA

KELD 210504Z AUTO 17011KT 10SM SCT018 BKN120 24/23 A2971 RMK AO2 T02390228


Station Type Date Time Source
KELD Decoded METAR 2019/10/21 05:04 UTC NOAA

SOUTH ARKANSAS REGIONAL, AR, United States (KELD) 33-13N 092-49W 81M
Oct 21, 2019 - 01:04 AM EDT / 2019.10.21 0504 UTC
Wind: from the S (170 degrees) at 13 MPH (11 KT):0
Visibility: 10 mile(s):0
Sky conditions: mostly cloudy
Temperature: 75.0 F (23.9 C)
Dew Point: 73.0 F (22.8 C)
Relative Humidity: 93%
Pressure (altimeter): 29.71 in. Hg (1006 hPa)
ob: KELD 210504Z AUTO 17011KT 10SM SCT018 BKN120 24/23 A2971 RMK AO2 T02390228
cycle: 5

Station Type Date Time Source
KELD TAF 2019/10/20 18:45 UTC NOAA

TAF KELD 201742Z 2018/2118 19007KT P6SM SCT007 BKN015
FM201900 18009KT P6SM SCT030 BKN040
FM210000 18011KT P6SM BKN040
FM210600 19014G22KT P6SM VCSH BKN025 OVC035
FM211400 27015G24KT 3SM TSRA BKN007 OVC015CB

Example: see airport list